sensor_id;sensor_type;location;lat;lon;timestamp;P1;durP1;ratioP1;P2;durP2;ratioP2
10100;SDS011;5090;51.258;4.436;2023-12-14T00:01:14;46.40;;;22.70;;
10100;SDS011;5090;51.258;4.436;2023-12-14T00:03:42;43.97;;;21.57;;
10100;SDS011;5090;51.258;4.436;2023-12-14T00:06:11;42.70;;;22.10;;
10100;SDS011;5090;51.258;4.436;2023-12-14T00:08:40;45.63;;;21.27;;
10100;SDS011;5090;51.258;4.436;2023-12-14T00:11:08;38.43;;;19.77;;
10100;SDS011;5090;51.258;4.436;2023-12-14T00:13:36;35.83;;;17.43;;
10100;SDS011;5090;51.258;4.436;2023-12-14T00:16:04;37.20;;;19.17;;
10100;SDS011;5090;51.258;4.436;2023-12-14T00:18:33;36.10;;;17.80;;
10100;SDS011;5090;51.258;4.436;2023-12-14T00:21:01;32.77;;;17.20;;
10100;SDS011;5090;51.258;4.436;2023-12-14T00:23:29;33.57;;;17.67;;
10100;SDS011;5090;51.258;4.436;2023-12-14T00:25:57;36.87;;;18.23;;
10100;SDS011;5090;51.258;4.436;2023-12-14T00:28:25;32.43;;;16.00;;
10100;SDS011;5090;51.258;4.436;2023-12-14T00:30:53;32.67;;;16.43;;
10100;SDS011;5090;51.258;4.436;2023-12-14T00:33:22;33.50;;;16.07;;
10100;SDS011;5090;51.258;4.436;2023-12-14T00:35:50;32.07;;;14.50;;
10100;SDS011;5090;51.258;4.436;2023-12-14T00:38:18;28.97;;;14.27;;
10100;SDS011;5090;51.258;4.436;2023-12-14T00:40:46;29.27;;;12.73;;
10100;SDS011;5090;51.258;4.436;2023-12-14T00:43:14;27.20;;;13.07;;
10100;SDS011;5090;51.258;4.436;2023-12-14T00:45:43;26.77;;;13.37;;
10100;SDS011;5090;51.258;4.436;2023-12-14T00:48:11;27.53;;;11.87;;
10100;SDS011;5090;51.258;4.436;2023-12-14T00:50:39;29.70;;;13.70;;
10100;SDS011;5090;51.258;4.436;2023-12-14T00:53:07;27.60;;;12.70;;
10100;SDS011;5090;51.258;4.436;2023-12-14T00:55:35;32.73;;;14.07;;
10100;SDS011;5090;51.258;4.436;2023-12-14T00:58:03;26.93;;;13.20;;
10100;SDS011;5090;51.258;4.436;2023-12-14T01:00:32;28.27;;;13.23;;
10100;SDS011;5090;51.258;4.436;2023-12-14T01:03:00;27.60;;;13.10;;
10100;SDS011;5090;51.258;4.436;2023-12-14T01:05:28;29.87;;;13.50;;
10100;SDS011;5090;51.258;4.436;2023-12-14T01:07:56;29.83;;;13.93;;
10100;SDS011;5090;51.258;4.436;2023-12-14T01:10:24;28.77;;;13.57;;
10100;SDS011;5090;51.258;4.436;2023-12-14T01:12:53;25.63;;;13.10;;
10100;SDS011;5090;51.258;4.436;2023-12-14T01:15:21;29.87;;;13.73;;
10100;SDS011;5090;51.258;4.436;2023-12-14T01:17:49;28.50;;;13.93;;
10100;SDS011;5090;51.258;4.436;2023-12-14T01:20:17;29.37;;;14.40;;
10100;SDS011;5090;51.258;4.436;2023-12-14T01:22:45;25.50;;;13.57;;
10100;SDS011;5090;51.258;4.436;2023-12-14T01:25:13;28.40;;;13.47;;
10100;SDS011;5090;51.258;4.436;2023-12-14T01:27:42;34.93;;;15.53;;
10100;SDS011;5090;51.258;4.436;2023-12-14T01:30:10;33.07;;;16.80;;
10100;SDS011;5090;51.258;4.436;2023-12-14T01:32:38;35.07;;;17.23;;
10100;SDS011;5090;51.258;4.436;2023-12-14T01:35:07;35.43;;;16.70;;
10100;SDS011;5090;51.258;4.436;2023-12-14T01:37:35;35.70;;;17.37;;
10100;SDS011;5090;51.258;4.436;2023-12-14T01:40:03;37.47;;;17.97;;
10100;SDS011;5090;51.258;4.436;2023-12-14T01:42:31;32.43;;;15.07;;
10100;SDS011;5090;51.258;4.436;2023-12-14T01:45:00;29.73;;;15.83;;
10100;SDS011;5090;51.258;4.436;2023-12-14T01:47:28;35.10;;;16.17;;
10100;SDS011;5090;51.258;4.436;2023-12-14T01:49:56;29.63;;;14.73;;
10100;SDS011;5090;51.258;4.436;2023-12-14T01:52:24;25.43;;;13.70;;
10100;SDS011;5090;51.258;4.436;2023-12-14T01:54:52;27.07;;;15.10;;
10100;SDS011;5090;51.258;4.436;2023-12-14T01:57:21;22.60;;;12.33;;
10100;SDS011;5090;51.258;4.436;2023-12-14T01:59:49;24.57;;;12.63;;
10100;SDS011;5090;51.258;4.436;2023-12-14T02:02:18;24.20;;;12.20;;
10100;SDS011;5090;51.258;4.436;2023-12-14T02:04:46;18.60;;;10.17;;
10100;SDS011;5090;51.258;4.436;2023-12-14T02:07:14;19.43;;;11.77;;
10100;SDS011;5090;51.258;4.436;2023-12-14T02:09:42;21.83;;;11.53;;
10100;SDS011;5090;51.258;4.436;2023-12-14T02:12:10;20.47;;;12.57;;
10100;SDS011;5090;51.258;4.436;2023-12-14T02:14:38;21.07;;;11.93;;
10100;SDS011;5090;51.258;4.436;2023-12-14T02:17:07;20.47;;;11.67;;
10100;SDS011;5090;51.258;4.436;2023-12-14T02:19:35;24.37;;;13.87;;
10100;SDS011;5090;51.258;4.436;2023-12-14T02:22:03;22.17;;;12.57;;
10100;SDS011;5090;51.258;4.436;2023-12-14T02:24:31;23.67;;;13.87;;
10100;SDS011;5090;51.258;4.436;2023-12-14T02:26:59;22.33;;;13.23;;
10100;SDS011;5090;51.258;4.436;2023-12-14T02:29:28;23.63;;;13.57;;
10100;SDS011;5090;51.258;4.436;2023-12-14T02:31:56;23.10;;;12.70;;
10100;SDS011;5090;51.258;4.436;2023-12-14T02:34:24;20.43;;;12.53;;
10100;SDS011;5090;51.258;4.436;2023-12-14T02:36:53;23.30;;;12.97;;
10100;SDS011;5090;51.258;4.436;2023-12-14T02:39:21;21.30;;;13.97;;
10100;SDS011;5090;51.258;4.436;2023-12-14T02:41:49;28.43;;;14.07;;
10100;SDS011;5090;51.258;4.436;2023-12-14T02:44:17;24.70;;;15.03;;
10100;SDS011;5090;51.258;4.436;2023-12-14T02:46:46;25.07;;;15.20;;
10100;SDS011;5090;51.258;4.436;2023-12-14T02:49:14;31.00;;;16.77;;
10100;SDS011;5090;51.258;4.436;2023-12-14T02:51:42;29.97;;;18.27;;
10100;SDS011;5090;51.258;4.436;2023-12-14T02:54:10;26.00;;;15.20;;
10100;SDS011;5090;51.258;4.436;2023-12-14T02:56:38;29.20;;;17.17;;
10100;SDS011;5090;51.258;4.436;2023-12-14T02:59:06;26.37;;;16.73;;
10100;SDS011;5090;51.258;4.436;2023-12-14T03:01:35;27.47;;;16.70;;
10100;SDS011;5090;51.258;4.436;2023-12-14T03:04:04;26.90;;;15.47;;
10100;SDS011;5090;51.258;4.436;2023-12-14T03:06:32;24.57;;;16.37;;
10100;SDS011;5090;51.258;4.436;2023-12-14T03:09:00;25.27;;;15.53;;
10100;SDS011;5090;51.258;4.436;2023-12-14T03:11:28;22.83;;;15.20;;
10100;SDS011;5090;51.258;4.436;2023-12-14T03:13:56;23.80;;;15.40;;
10100;SDS011;5090;51.258;4.436;2023-12-14T03:16:25;21.03;;;13.47;;
10100;SDS011;5090;51.258;4.436;2023-12-14T03:18:53;21.10;;;14.70;;
10100;SDS011;5090;51.258;4.436;2023-12-14T03:21:21;23.40;;;13.70;;
10100;SDS011;5090;51.258;4.436;2023-12-14T03:23:49;19.83;;;13.33;;
10100;SDS011;5090;51.258;4.436;2023-12-14T03:26:17;20.27;;;13.10;;
10100;SDS011;5090;51.258;4.436;2023-12-14T03:28:46;17.60;;;12.63;;
10100;SDS011;5090;51.258;4.436;2023-12-14T03:31:14;18.87;;;13.50;;
10100;SDS011;5090;51.258;4.436;2023-12-14T03:33:42;19.43;;;13.07;;
10100;SDS011;5090;51.258;4.436;2023-12-14T03:36:10;17.27;;;13.03;;
10100;SDS011;5090;51.258;4.436;2023-12-14T03:38:38;18.97;;;12.87;;
10100;SDS011;5090;51.258;4.436;2023-12-14T03:41:08;22.53;;;14.63;;
10100;SDS011;5090;51.258;4.436;2023-12-14T03:43:36;20.03;;;13.37;;
10100;SDS011;5090;51.258;4.436;2023-12-14T03:46:04;21.13;;;13.27;;
10100;SDS011;5090;51.258;4.436;2023-12-14T03:48:33;25.27;;;15.20;;
10100;SDS011;5090;51.258;4.436;2023-12-14T03:51:03;19.70;;;14.67;;
10100;SDS011;5090;51.258;4.436;2023-12-14T03:53:31;22.23;;;14.87;;
10100;SDS011;5090;51.258;4.436;2023-12-14T03:55:59;23.23;;;15.53;;
10100;SDS011;5090;51.258;4.436;2023-12-14T03:58:27;20.70;;;14.40;;
10100;SDS011;5090;51.258;4.436;2023-12-14T04:00:55;20.50;;;14.33;;
10100;SDS011;5090;51.258;4.436;2023-12-14T04:03:23;22.87;;;15.37;;
10100;SDS011;5090;51.258;4.436;2023-12-14T04:05:51;17.87;;;13.97;;
10100;SDS011;5090;51.258;4.436;2023-12-14T04:08:20;21.20;;;15.33;;
10100;SDS011;5090;51.258;4.436;2023-12-14T04:10:48;24.27;;;15.10;;
10100;SDS011;5090;51.258;4.436;2023-12-14T04:13:16;19.03;;;14.23;;
10100;SDS011;5090;51.258;4.436;2023-12-14T04:15:44;21.93;;;14.40;;
10100;SDS011;5090;51.258;4.436;2023-12-14T04:18:13;20.93;;;14.43;;
10100;SDS011;5090;51.258;4.436;2023-12-14T04:20:41;22.47;;;14.80;;
10100;SDS011;5090;51.258;4.436;2023-12-14T04:23:10;20.17;;;14.53;;
10100;SDS011;5090;51.258;4.436;2023-12-14T04:25:38;17.37;;;12.93;;
10100;SDS011;5090;51.258;4.436;2023-12-14T04:28:06;18.97;;;13.37;;
10100;SDS011;5090;51.258;4.436;2023-12-14T04:30:34;18.00;;;13.70;;
10100;SDS011;5090;51.258;4.436;2023-12-14T04:33:03;21.90;;;14.10;;
10100;SDS011;5090;51.258;4.436;2023-12-14T04:35:31;22.07;;;14.50;;
10100;SDS011;5090;51.258;4.436;2023-12-14T04:37:59;20.80;;;14.17;;
10100;SDS011;5090;51.258;4.436;2023-12-14T04:40:28;22.87;;;14.40;;
10100;SDS011;5090;51.258;4.436;2023-12-14T04:42:56;21.23;;;13.97;;
10100;SDS011;5090;51.258;4.436;2023-12-14T04:45:24;22.83;;;14.07;;
10100;SDS011;5090;51.258;4.436;2023-12-14T04:47:52;19.63;;;14.03;;
10100;SDS011;5090;51.258;4.436;2023-12-14T04:50:20;20.30;;;13.07;;
10100;SDS011;5090;51.258;4.436;2023-12-14T04:52:48;17.77;;;13.20;;
10100;SDS011;5090;51.258;4.436;2023-12-14T04:55:17;19.13;;;13.43;;
10100;SDS011;5090;51.258;4.436;2023-12-14T04:57:45;19.40;;;13.33;;
10100;SDS011;5090;51.258;4.436;2023-12-14T05:00:13;17.90;;;12.40;;
10100;SDS011;5090;51.258;4.436;2023-12-14T05:02:45;18.43;;;13.37;;
10100;SDS011;5090;51.258;4.436;2023-12-14T05:05:10;16.87;;;12.70;;
10100;SDS011;5090;51.258;4.436;2023-12-14T05:07:38;19.67;;;14.10;;
10100;SDS011;5090;51.258;4.436;2023-12-14T05:10:06;19.37;;;13.10;;
10100;SDS011;5090;51.258;4.436;2023-12-14T05:12:35;18.93;;;12.90;;
10100;SDS011;5090;51.258;4.436;2023-12-14T05:15:04;19.83;;;13.23;;
10100;SDS011;5090;51.258;4.436;2023-12-14T05:17:31;23.37;;;14.83;;
10100;SDS011;5090;51.258;4.436;2023-12-14T05:19:59;21.63;;;13.47;;
10100;SDS011;5090;51.258;4.436;2023-12-14T05:22:28;19.77;;;13.70;;
10100;SDS011;5090;51.258;4.436;2023-12-14T05:24:56;23.63;;;14.17;;
10100;SDS011;5090;51.258;4.436;2023-12-14T05:27:24;20.27;;;13.47;;
10100;SDS011;5090;51.258;4.436;2023-12-14T05:29:52;22.87;;;14.67;;
10100;SDS011;5090;51.258;4.436;2023-12-14T05:32:21;19.47;;;13.37;;
10100;SDS011;5090;51.258;4.436;2023-12-14T05:34:49;23.33;;;14.37;;
10100;SDS011;5090;51.258;4.436;2023-12-14T05:37:17;22.90;;;13.17;;
10100;SDS011;5090;51.258;4.436;2023-12-14T05:39:45;21.67;;;14.17;;
10100;SDS011;5090;51.258;4.436;2023-12-14T05:42:16;20.27;;;13.00;;
10100;SDS011;5090;51.258;4.436;2023-12-14T05:44:42;24.47;;;14.07;;
10100;SDS011;5090;51.258;4.436;2023-12-14T05:47:10;21.60;;;12.93;;
10100;SDS011;5090;51.258;4.436;2023-12-14T05:49:41;20.30;;;12.83;;
10100;SDS011;5090;51.258;4.436;2023-12-14T05:52:10;23.33;;;13.27;;
10100;SDS011;5090;51.258;4.436;2023-12-14T05:54:38;22.20;;;12.73;;
10100;SDS011;5090;51.258;4.436;2023-12-14T05:57:06;19.37;;;12.33;;
10100;SDS011;5090;51.258;4.436;2023-12-14T05:59:34;20.97;;;13.03;;
10100;SDS011;5090;51.258;4.436;2023-12-14T06:02:02;19.60;;;12.80;;
10100;SDS011;5090;51.258;4.436;2023-12-14T06:04:31;20.87;;;12.47;;
10100;SDS011;5090;51.258;4.436;2023-12-14T06:06:59;22.77;;;13.17;;
10100;SDS011;5090;51.258;4.436;2023-12-14T06:09:28;23.17;;;12.60;;
10100;SDS011;5090;51.258;4.436;2023-12-14T06:11:57;21.40;;;12.93;;
10100;SDS011;5090;51.258;4.436;2023-12-14T06:14:25;19.80;;;11.97;;
10100;SDS011;5090;51.258;4.436;2023-12-14T06:16:53;19.63;;;11.27;;
10100;SDS011;5090;51.258;4.436;2023-12-14T06:19:22;21.73;;;12.37;;
10100;SDS011;5090;51.258;4.436;2023-12-14T06:21:50;17.57;;;11.67;;
10100;SDS011;5090;51.258;4.436;2023-12-14T06:24:18;20.07;;;11.47;;
10100;SDS011;5090;51.258;4.436;2023-12-14T06:26:46;19.67;;;12.00;;
10100;SDS011;5090;51.258;4.436;2023-12-14T06:29:14;16.80;;;11.43;;
10100;SDS011;5090;51.258;4.436;2023-12-14T06:31:43;21.43;;;11.37;;
10100;SDS011;5090;51.258;4.436;2023-12-14T06:34:11;18.07;;;11.33;;
10100;SDS011;5090;51.258;4.436;2023-12-14T06:36:41;21.07;;;11.50;;
10100;SDS011;5090;51.258;4.436;2023-12-14T06:39:09;18.60;;;10.73;;
10100;SDS011;5090;51.258;4.436;2023-12-14T06:41:37;19.13;;;11.67;;
10100;SDS011;5090;51.258;4.436;2023-12-14T06:44:05;18.13;;;11.27;;
10100;SDS011;5090;51.258;4.436;2023-12-14T06:46:33;20.17;;;11.60;;
10100;SDS011;5090;51.258;4.436;2023-12-14T06:49:02;21.13;;;10.93;;
10100;SDS011;5090;51.258;4.436;2023-12-14T06:51:30;18.07;;;10.53;;
10100;SDS011;5090;51.258;4.436;2023-12-14T06:53:58;17.80;;;11.47;;
10100;SDS011;5090;51.258;4.436;2023-12-14T06:56:27;20.23;;;10.70;;
10100;SDS011;5090;51.258;4.436;2023-12-14T06:58:55;16.57;;;11.13;;
10100;SDS011;5090;51.258;4.436;2023-12-14T07:01:23;19.10;;;11.30;;
10100;SDS011;5090;51.258;4.436;2023-12-14T07:03:51;16.30;;;10.83;;
10100;SDS011;5090;51.258;4.436;2023-12-14T07:06:20;18.93;;;11.20;;
10100;SDS011;5090;51.258;4.436;2023-12-14T07:08:48;16.77;;;10.60;;
10100;SDS011;5090;51.258;4.436;2023-12-14T07:11:16;16.53;;;10.67;;
10100;SDS011;5090;51.258;4.436;2023-12-14T07:13:45;17.33;;;11.43;;
10100;SDS011;5090;51.258;4.436;2023-12-14T07:16:13;19.93;;;12.23;;
10100;SDS011;5090;51.258;4.436;2023-12-14T07:18:41;23.00;;;11.13;;
10100;SDS011;5090;51.258;4.436;2023-12-14T07:21:09;19.10;;;11.23;;
10100;SDS011;5090;51.258;4.436;2023-12-14T07:23:38;19.37;;;11.30;;
10100;SDS011;5090;51.258;4.436;2023-12-14T07:26:06;17.70;;;11.03;;
10100;SDS011;5090;51.258;4.436;2023-12-14T07:28:34;20.00;;;11.93;;
10100;SDS011;5090;51.258;4.436;2023-12-14T07:31:02;19.97;;;11.27;;
10100;SDS011;5090;51.258;4.436;2023-12-14T07:33:31;18.87;;;11.90;;
10100;SDS011;5090;51.258;4.436;2023-12-14T07:35:59;18.93;;;12.37;;
10100;SDS011;5090;51.258;4.436;2023-12-14T07:38:27;17.03;;;11.50;;
10100;SDS011;5090;51.258;4.436;2023-12-14T07:40:55;19.00;;;11.53;;
10100;SDS011;5090;51.258;4.436;2023-12-14T07:43:24;17.80;;;11.50;;
10100;SDS011;5090;51.258;4.436;2023-12-14T07:45:52;19.23;;;11.83;;
10100;SDS011;5090;51.258;4.436;2023-12-14T07:48:20;23.37;;;11.63;;
10100;SDS011;5090;51.258;4.436;2023-12-14T07:50:48;25.07;;;12.57;;
10100;SDS011;5090;51.258;4.436;2023-12-14T07:53:16;24.83;;;12.53;;
10100;SDS011;5090;51.258;4.436;2023-12-14T07:55:45;21.13;;;12.73;;
10100;SDS011;5090;51.258;4.436;2023-12-14T07:58:13;21.40;;;12.23;;
10100;SDS011;5090;51.258;4.436;2023-12-14T08:00:41;22.07;;;12.23;;
10100;SDS011;5090;51.258;4.436;2023-12-14T08:03:09;22.77;;;12.63;;
10100;SDS011;5090;51.258;4.436;2023-12-14T08:05:38;17.63;;;11.77;;
10100;SDS011;5090;51.258;4.436;2023-12-14T08:08:06;22.87;;;12.47;;
10100;SDS011;5090;51.258;4.436;2023-12-14T08:10:34;22.13;;;11.73;;
10100;SDS011;5090;51.258;4.436;2023-12-14T08:13:02;22.00;;;12.50;;
10100;SDS011;5090;51.258;4.436;2023-12-14T08:15:31;19.97;;;11.80;;
10100;SDS011;5090;51.258;4.436;2023-12-14T08:17:59;21.00;;;10.77;;
10100;SDS011;5090;51.258;4.436;2023-12-14T08:20:27;23.17;;;12.17;;
10100;SDS011;5090;51.258;4.436;2023-12-14T08:22:55;21.60;;;12.13;;
10100;SDS011;5090;51.258;4.436;2023-12-14T08:25:23;20.93;;;11.67;;
10100;SDS011;5090;51.258;4.436;2023-12-14T08:27:52;18.90;;;11.80;;
10100;SDS011;5090;51.258;4.436;2023-12-14T08:30:20;25.30;;;12.60;;
10100;SDS011;5090;51.258;4.436;2023-12-14T08:32:48;20.30;;;11.43;;
10100;SDS011;5090;51.258;4.436;2023-12-14T08:35:16;19.50;;;11.33;;
10100;SDS011;5090;51.258;4.436;2023-12-14T08:37:44;18.40;;;10.83;;
10100;SDS011;5090;51.258;4.436;2023-12-14T08:40:12;20.90;;;10.57;;
10100;SDS011;5090;51.258;4.436;2023-12-14T08:42:41;17.20;;;11.23;;
10100;SDS011;5090;51.258;4.436;2023-12-14T08:45:09;22.20;;;10.90;;
10100;SDS011;5090;51.258;4.436;2023-12-14T08:47:37;19.53;;;10.23;;
10100;SDS011;5090;51.258;4.436;2023-12-14T08:50:06;20.20;;;10.37;;
10100;SDS011;5090;51.258;4.436;2023-12-14T08:52:34;16.10;;;10.03;;
10100;SDS011;5090;51.258;4.436;2023-12-14T08:55:02;17.90;;;10.00;;
10100;SDS011;5090;51.258;4.436;2023-12-14T08:57:31;19.20;;;8.90;;
10100;SDS011;5090;51.258;4.436;2023-12-14T08:59:59;18.50;;;9.30;;
10100;SDS011;5090;51.258;4.436;2023-12-14T09:02:27;17.83;;;9.30;;
10100;SDS011;5090;51.258;4.436;2023-12-14T09:04:56;15.77;;;8.53;;
10100;SDS011;5090;51.258;4.436;2023-12-14T09:07:24;14.77;;;8.63;;
10100;SDS011;5090;51.258;4.436;2023-12-14T09:09:52;13.17;;;8.23;;
10100;SDS011;5090;51.258;4.436;2023-12-14T09:12:20;15.40;;;7.70;;
10100;SDS011;5090;51.258;4.436;2023-12-14T09:14:48;15.13;;;7.07;;
10100;SDS011;5090;51.258;4.436;2023-12-14T09:17:17;14.83;;;7.23;;
10100;SDS011;5090;51.258;4.436;2023-12-14T09:19:45;11.13;;;5.87;;
10100;SDS011;5090;51.258;4.436;2023-12-14T09:22:13;13.87;;;6.57;;
10100;SDS011;5090;51.258;4.436;2023-12-14T09:24:42;10.00;;;5.33;;
10100;SDS011;5090;51.258;4.436;2023-12-14T09:27:10;9.03;;;5.23;;
10100;SDS011;5090;51.258;4.436;2023-12-14T09:29:38;10.17;;;5.60;;
10100;SDS011;5090;51.258;4.436;2023-12-14T09:32:07;11.40;;;5.63;;
10100;SDS011;5090;51.258;4.436;2023-12-14T09:34:35;8.10;;;5.07;;
10100;SDS011;5090;51.258;4.436;2023-12-14T09:37:03;9.80;;;6.23;;
10100;SDS011;5090;51.258;4.436;2023-12-14T09:39:31;9.77;;;6.47;;
10100;SDS011;5090;51.258;4.436;2023-12-14T09:42:02;11.27;;;6.50;;
10100;SDS011;5090;51.258;4.436;2023-12-14T09:44:30;8.00;;;5.90;;
10100;SDS011;5090;51.258;4.436;2023-12-14T09:46:59;9.47;;;6.17;;
10100;SDS011;5090;51.258;4.436;2023-12-14T09:49:26;10.80;;;6.80;;
10100;SDS011;5090;51.258;4.436;2023-12-14T09:51:55;10.80;;;6.07;;
10100;SDS011;5090;51.258;4.436;2023-12-14T09:54:24;8.30;;;5.80;;
10100;SDS011;5090;51.258;4.436;2023-12-14T09:56:51;9.73;;;6.63;;
10100;SDS011;5090;51.258;4.436;2023-12-14T09:59:20;13.70;;;6.90;;
10100;SDS011;5090;51.258;4.436;2023-12-14T10:01:48;12.00;;;6.27;;
10100;SDS011;5090;51.258;4.436;2023-12-14T10:04:20;10.67;;;6.50;;
10100;SDS011;5090;51.258;4.436;2023-12-14T10:06:48;10.30;;;6.47;;
10100;SDS011;5090;51.258;4.436;2023-12-14T10:09:22;8.03;;;6.17;;
10100;SDS011;5090;51.258;4.436;2023-12-14T10:11:44;14.10;;;7.17;;
10100;SDS011;5090;51.258;4.436;2023-12-14T10:16:47;11.47;;;7.20;;
10100;SDS011;5090;51.258;4.436;2023-12-14T10:19:16;13.23;;;6.67;;
10100;SDS011;5090;51.258;4.436;2023-12-14T10:21:43;10.80;;;6.70;;
10100;SDS011;5090;51.258;4.436;2023-12-14T10:24:11;9.93;;;6.97;;
10100;SDS011;5090;51.258;4.436;2023-12-14T10:26:39;9.80;;;6.83;;
10100;SDS011;5090;51.258;4.436;2023-12-14T10:29:07;11.63;;;6.40;;
10100;SDS011;5090;51.258;4.436;2023-12-14T10:31:36;11.40;;;7.23;;
10100;SDS011;5090;51.258;4.436;2023-12-14T10:34:04;12.73;;;6.80;;
10100;SDS011;5090;51.258;4.436;2023-12-14T10:36:32;9.20;;;6.50;;
10100;SDS011;5090;51.258;4.436;2023-12-14T10:39:00;15.50;;;7.73;;
10100;SDS011;5090;51.258;4.436;2023-12-14T10:41:28;12.77;;;7.03;;
10100;SDS011;5090;51.258;4.436;2023-12-14T10:43:56;9.93;;;6.77;;
10100;SDS011;5090;51.258;4.436;2023-12-14T10:46:25;9.80;;;6.47;;
10100;SDS011;5090;51.258;4.436;2023-12-14T10:48:53;11.77;;;7.20;;
10100;SDS011;5090;51.258;4.436;2023-12-14T10:51:22;13.67;;;7.77;;
10100;SDS011;5090;51.258;4.436;2023-12-14T10:53:53;12.17;;;6.93;;
10100;SDS011;5090;51.258;4.436;2023-12-14T10:56:22;12.03;;;7.73;;
10100;SDS011;5090;51.258;4.436;2023-12-14T10:58:52;11.30;;;6.93;;
10100;SDS011;5090;51.258;4.436;2023-12-14T11:01:19;13.30;;;7.37;;
10100;SDS011;5090;51.258;4.436;2023-12-14T11:03:47;11.60;;;7.07;;
10100;SDS011;5090;51.258;4.436;2023-12-14T11:06:25;11.93;;;7.47;;
10100;SDS011;5090;51.258;4.436;2023-12-14T11:08:50;14.17;;;7.10;;
10100;SDS011;5090;51.258;4.436;2023-12-14T11:11:17;11.20;;;6.57;;
10100;SDS011;5090;51.258;4.436;2023-12-14T11:13:46;11.93;;;7.37;;
10100;SDS011;5090;51.258;4.436;2023-12-14T11:16:14;10.83;;;7.13;;
10100;SDS011;5090;51.258;4.436;2023-12-14T11:18:41;14.40;;;7.60;;
10100;SDS011;5090;51.258;4.436;2023-12-14T11:21:10;13.77;;;7.27;;
10100;SDS011;5090;51.258;4.436;2023-12-14T11:23:38;14.33;;;6.60;;
10100;SDS011;5090;51.258;4.436;2023-12-14T11:26:08;16.27;;;7.67;;
10100;SDS011;5090;51.258;4.436;2023-12-14T11:28:36;14.83;;;7.50;;
10100;SDS011;5090;51.258;4.436;2023-12-14T11:31:03;15.53;;;7.20;;
10100;SDS011;5090;51.258;4.436;2023-12-14T11:33:33;15.67;;;7.77;;
10100;SDS011;5090;51.258;4.436;2023-12-14T11:36:01;10.37;;;7.43;;
10100;SDS011;5090;51.258;4.436;2023-12-14T11:38:30;13.53;;;7.17;;
10100;SDS011;5090;51.258;4.436;2023-12-14T11:40:57;13.47;;;7.10;;
10100;SDS011;5090;51.258;4.436;2023-12-14T11:43:25;15.23;;;7.70;;
10100;SDS011;5090;51.258;4.436;2023-12-14T11:45:53;14.63;;;7.53;;
10100;SDS011;5090;51.258;4.436;2023-12-14T11:48:21;13.70;;;7.37;;
10100;SDS011;5090;51.258;4.436;2023-12-14T11:50:50;11.23;;;6.87;;
10100;SDS011;5090;51.258;4.436;2023-12-14T11:53:18;8.90;;;6.90;;
10100;SDS011;5090;51.258;4.436;2023-12-14T11:55:47;11.67;;;7.27;;
10100;SDS011;5090;51.258;4.436;2023-12-14T11:58:15;12.13;;;7.33;;
10100;SDS011;5090;51.258;4.436;2023-12-14T12:00:43;11.60;;;7.33;;
10100;SDS011;5090;51.258;4.436;2023-12-14T12:03:15;13.40;;;7.40;;
10100;SDS011;5090;51.258;4.436;2023-12-14T12:05:43;15.10;;;7.47;;
10100;SDS011;5090;51.258;4.436;2023-12-14T12:08:10;15.73;;;7.80;;
10100;SDS011;5090;51.258;4.436;2023-12-14T12:10:39;19.40;;;8.43;;
10100;SDS011;5090;51.258;4.436;2023-12-14T12:13:08;12.00;;;7.70;;
10100;SDS011;5090;51.258;4.436;2023-12-14T12:15:35;11.37;;;6.83;;
10100;SDS011;5090;51.258;4.436;2023-12-14T12:18:05;12.77;;;6.83;;
10100;SDS011;5090;51.258;4.436;2023-12-14T12:20:31;9.23;;;7.03;;
10100;SDS011;5090;51.258;4.436;2023-12-14T12:23:00;16.57;;;7.63;;
10100;SDS011;5090;51.258;4.436;2023-12-14T12:25:28;12.80;;;6.90;;
10100;SDS011;5090;51.258;4.436;2023-12-14T12:27:56;12.57;;;6.83;;
10100;SDS011;5090;51.258;4.436;2023-12-14T12:30:24;10.67;;;6.87;;
10100;SDS011;5090;51.258;4.436;2023-12-14T12:32:52;12.27;;;6.53;;
10100;SDS011;5090;51.258;4.436;2023-12-14T12:35:21;11.40;;;6.70;;
10100;SDS011;5090;51.258;4.436;2023-12-14T12:37:48;16.43;;;6.23;;
10100;SDS011;5090;51.258;4.436;2023-12-14T12:40:17;10.67;;;6.00;;
10100;SDS011;5090;51.258;4.436;2023-12-14T12:42:45;13.57;;;5.53;;
10100;SDS011;5090;51.258;4.436;2023-12-14T12:45:13;12.23;;;6.07;;
10100;SDS011;5090;51.258;4.436;2023-12-14T12:47:41;12.57;;;5.90;;
10100;SDS011;5090;51.258;4.436;2023-12-14T12:50:09;8.63;;;5.07;;
10100;SDS011;5090;51.258;4.436;2023-12-14T12:52:39;10.57;;;5.40;;
10100;SDS011;5090;51.258;4.436;2023-12-14T12:55:07;8.70;;;5.80;;
10100;SDS011;5090;51.258;4.436;2023-12-14T12:57:35;11.75;;;6.50;;
10100;SDS011;5090;51.258;4.436;2023-12-14T13:00:03;9.10;;;6.13;;
10100;SDS011;5090;51.258;4.436;2023-12-14T13:02:32;13.03;;;5.53;;
10100;SDS011;5090;51.258;4.436;2023-12-14T13:05:00;12.27;;;6.30;;
10100;SDS011;5090;51.258;4.436;2023-12-14T13:07:28;17.73;;;6.00;;
10100;SDS011;5090;51.258;4.436;2023-12-14T13:09:56;9.67;;;6.00;;
10100;SDS011;5090;51.258;4.436;2023-12-14T13:12:24;10.67;;;6.10;;
10100;SDS011;5090;51.258;4.436;2023-12-14T13:14:53;9.67;;;6.27;;
10100;SDS011;5090;51.258;4.436;2023-12-14T13:17:21;8.60;;;6.50;;
10100;SDS011;5090;51.258;4.436;2023-12-14T13:19:50;9.93;;;7.43;;
10100;SDS011;5090;51.258;4.436;2023-12-14T13:22:18;9.90;;;6.23;;
10100;SDS011;5090;51.258;4.436;2023-12-14T13:24:47;10.83;;;6.50;;
10100;SDS011;5090;51.258;4.436;2023-12-14T13:27:16;14.13;;;6.83;;
10100;SDS011;5090;51.258;4.436;2023-12-14T13:29:45;10.50;;;5.77;;
10100;SDS011;5090;51.258;4.436;2023-12-14T13:32:13;13.47;;;6.37;;
10100;SDS011;5090;51.258;4.436;2023-12-14T13:34:42;12.20;;;6.50;;
10100;SDS011;5090;51.258;4.436;2023-12-14T13:37:10;11.77;;;6.43;;
10100;SDS011;5090;51.258;4.436;2023-12-14T13:39:38;15.93;;;7.23;;
10100;SDS011;5090;51.258;4.436;2023-12-14T13:42:07;10.60;;;6.93;;
10100;SDS011;5090;51.258;4.436;2023-12-14T13:44:35;11.83;;;7.13;;
10100;SDS011;5090;51.258;4.436;2023-12-14T13:47:04;15.03;;;7.40;;
10100;SDS011;5090;51.258;4.436;2023-12-14T13:49:32;16.43;;;7.73;;
10100;SDS011;5090;51.258;4.436;2023-12-14T13:52:01;11.60;;;7.40;;
10100;SDS011;5090;51.258;4.436;2023-12-14T13:54:34;10.87;;;7.30;;
10100;SDS011;5090;51.258;4.436;2023-12-14T13:57:03;15.73;;;6.90;;
10100;SDS011;5090;51.258;4.436;2023-12-14T13:59:31;14.10;;;7.43;;
10100;SDS011;5090;51.258;4.436;2023-12-14T14:01:59;15.43;;;7.90;;
10100;SDS011;5090;51.258;4.436;2023-12-14T14:04:27;13.30;;;7.00;;
10100;SDS011;5090;51.258;4.436;2023-12-14T14:06:56;16.27;;;7.47;;
10100;SDS011;5090;51.258;4.436;2023-12-14T14:09:24;14.23;;;8.00;;
10100;SDS011;5090;51.258;4.436;2023-12-14T14:11:52;10.47;;;5.67;;
10100;SDS011;5090;51.258;4.436;2023-12-14T14:14:21;8.67;;;5.33;;
10100;SDS011;5090;51.258;4.436;2023-12-14T14:16:49;6.60;;;4.33;;
10100;SDS011;5090;51.258;4.436;2023-12-14T14:19:18;9.03;;;4.13;;
10100;SDS011;5090;51.258;4.436;2023-12-14T14:21:46;11.40;;;4.43;;
10100;SDS011;5090;51.258;4.436;2023-12-14T14:24:14;8.50;;;4.33;;
10100;SDS011;5090;51.258;4.436;2023-12-14T14:26:42;11.03;;;4.80;;
10100;SDS011;5090;51.258;4.436;2023-12-14T14:29:11;9.20;;;4.00;;
10100;SDS011;5090;51.258;4.436;2023-12-14T14:31:40;9.77;;;3.90;;
10100;SDS011;5090;51.258;4.436;2023-12-14T14:34:08;7.50;;;3.37;;
10100;SDS011;5090;51.258;4.436;2023-12-14T14:36:36;8.63;;;3.37;;
10100;SDS011;5090;51.258;4.436;2023-12-14T14:39:04;7.53;;;3.60;;
10100;SDS011;5090;51.258;4.436;2023-12-14T14:41:33;6.07;;;2.83;;
10100;SDS011;5090;51.258;4.436;2023-12-14T14:44:01;3.50;;;1.97;;
10100;SDS011;5090;51.258;4.436;2023-12-14T14:46:31;8.50;;;2.37;;
10100;SDS011;5090;51.258;4.436;2023-12-14T14:49:00;5.33;;;2.00;;